sensor_id;sensor_type;location;lat;lon;timestamp;pressure;altitude;pressure_sealevel;temperature;humidity
49529;BME280;35423;37.320;-121.762;2024-02-26T00:02:27;99868.24;;;42.93;7.92
49529;BME280;35423;37.320;-121.762;2024-02-26T00:04:54;99863.66;;;42.11;8.01
49529;BME280;35423;37.320;-121.762;2024-02-26T00:07:20;99862.42;;;42.18;8.12
49529;BME280;35423;37.320;-121.762;2024-02-26T00:09:53;99862.24;;;42.29;8.26
49529;BME280;35423;37.320;-121.762;2024-02-26T00:12:21;99857.41;;;42.11;8.28
49529;BME280;35423;37.320;-121.762;2024-02-26T00:14:49;99855.89;;;42.00;8.31
49529;BME280;35423;37.320;-121.762;2024-02-26T00:17:22;99854.81;;;41.97;8.31
49529;BME280;35423;37.320;-121.762;2024-02-26T00:19:48;99858.84;;;41.41;8.42
49529;BME280;35423;37.320;-121.762;2024-02-26T00:22:16;99859.54;;;41.50;8.56
49529;BME280;35423;37.320;-121.762;2024-02-26T00:24:42;99855.83;;;41.19;8.74
49529;BME280;35423;37.320;-121.762;2024-02-26T00:27:07;99856.99;;;41.29;8.79
49529;BME280;35423;37.320;-121.762;2024-02-26T00:29:34;99855.45;;;40.88;8.89
49529;BME280;35423;37.320;-121.762;2024-02-26T00:32:00;99857.23;;;41.09;9.04
49529;BME280;35423;37.320;-121.762;2024-02-26T00:34:25;99858.61;;;41.17;9.06
49529;BME280;35423;37.320;-121.762;2024-02-26T00:36:56;99862.18;;;41.02;9.07
49529;BME280;35423;37.320;-121.762;2024-02-26T00:39:21;99861.86;;;40.98;9.20
49529;BME280;35423;37.320;-121.762;2024-02-26T00:41:47;99864.08;;;40.33;9.30
49529;BME280;35423;37.320;-121.762;2024-02-26T00:44:13;99867.59;;;40.67;9.44
49529;BME280;35423;37.320;-121.762;2024-02-26T00:46:39;99875.24;;;39.77;9.43
49529;BME280;35423;37.320;-121.762;2024-02-26T00:49:06;99881.07;;;40.25;9.49
49529;BME280;35423;37.320;-121.762;2024-02-26T00:51:35;99882.62;;;39.50;9.61
49529;BME280;35423;37.320;-121.762;2024-02-26T00:54:03;99882.97;;;39.65;9.76
49529;BME280;35423;37.320;-121.762;2024-02-26T00:56:30;99887.42;;;39.60;9.82
49529;BME280;35423;37.320;-121.762;2024-02-26T00:59:06;99893.69;;;39.28;9.98
49529;BME280;35423;37.320;-121.762;2024-02-26T01:01:33;99900.43;;;38.95;10.10
49529;BME280;35423;37.320;-121.762;2024-02-26T01:04:01;99904.98;;;38.59;10.25
49529;BME280;35423;37.320;-121.762;2024-02-26T01:06:29;99908.73;;;38.51;10.41
49529;BME280;35423;37.320;-121.762;2024-02-26T01:08:54;99912.18;;;38.06;10.63
49529;BME280;35423;37.320;-121.762;2024-02-26T01:11:20;99913.91;;;38.09;10.89
49529;BME280;35423;37.320;-121.762;2024-02-26T01:13:45;99918.08;;;37.18;11.02
49529;BME280;35423;37.320;-121.762;2024-02-26T01:16:12;99918.07;;;37.26;11.22
49529;BME280;35423;37.320;-121.762;2024-02-26T01:18:38;99925.78;;;36.34;11.51
49529;BME280;35423;37.320;-121.762;2024-02-26T01:21:08;99930.40;;;36.78;11.82
49529;BME280;35423;37.320;-121.762;2024-02-26T01:23:31;99939.26;;;36.44;12.33
49529;BME280;35423;37.320;-121.762;2024-02-26T01:25:58;99947.17;;;35.87;12.65
49529;BME280;35423;37.320;-121.762;2024-02-26T01:28:35;99953.60;;;34.61;12.84
49529;BME280;35423;37.320;-121.762;2024-02-26T01:31:02;99956.56;;;35.29;12.93
49529;BME280;35423;37.320;-121.762;2024-02-26T01:33:32;99955.98;;;35.10;13.22
49529;BME280;35423;37.320;-121.762;2024-02-26T01:35:55;99968.34;;;34.33;13.63
49529;BME280;35423;37.320;-121.762;2024-02-26T01:38:27;99965.75;;;34.03;13.97
49529;BME280;35423;37.320;-121.762;2024-02-26T01:41:02;99967.11;;;33.60;14.21
49529;BME280;35423;37.320;-121.762;2024-02-26T01:43:22;99970.27;;;33.43;14.42
49529;BME280;35423;37.320;-121.762;2024-02-26T01:45:46;99979.89;;;32.82;14.37
49529;BME280;35423;37.320;-121.762;2024-02-26T01:48:14;99981.60;;;32.66;14.58
49529;BME280;35423;37.320;-121.762;2024-02-26T01:50:39;99983.75;;;32.57;14.79
49529;BME280;35423;37.320;-121.762;2024-02-26T01:53:05;99991.46;;;32.46;15.06
49529;BME280;35423;37.320;-121.762;2024-02-26T01:55:31;99992.30;;;32.21;15.32
49529;BME280;35423;37.320;-121.762;2024-02-26T01:57:58;99992.51;;;31.82;15.39
49529;BME280;35423;37.320;-121.762;2024-02-26T02:00:32;99993.02;;;31.92;15.53
49529;BME280;35423;37.320;-121.762;2024-02-26T02:03:03;99993.23;;;31.76;15.69
49529;BME280;35423;37.320;-121.762;2024-02-26T02:05:29;99999.55;;;31.75;15.75
49529;BME280;35423;37.320;-121.762;2024-02-26T02:07:54;100004.27;;;31.27;15.86
49529;BME280;35423;37.320;-121.762;2024-02-26T02:10:20;100007.69;;;31.74;15.86
49529;BME280;35423;37.320;-121.762;2024-02-26T02:12:45;100010.59;;;31.57;15.96
49529;BME280;35423;37.320;-121.762;2024-02-26T02:15:12;100016.48;;;31.44;16.00
49529;BME280;35423;37.320;-121.762;2024-02-26T02:17:38;100014.59;;;30.75;16.31
49529;BME280;35423;37.320;-121.762;2024-02-26T02:20:09;100017.58;;;31.27;16.45
49529;BME280;35423;37.320;-121.762;2024-02-26T02:22:33;100019.86;;;30.84;16.61
49529;BME280;35423;37.320;-121.762;2024-02-26T02:24:58;100019.55;;;31.20;16.63
49529;BME280;35423;37.320;-121.762;2024-02-26T02:27:28;100024.57;;;30.89;16.70
49529;BME280;35423;37.320;-121.762;2024-02-26T02:29:59;100031.33;;;30.64;16.91
49529;BME280;35423;37.320;-121.762;2024-02-26T02:32:33;100036.68;;;30.61;16.99
49529;BME280;35423;37.320;-121.762;2024-02-26T02:35:00;100037.54;;;30.59;17.01
49529;BME280;35423;37.320;-121.762;2024-02-26T02:37:27;100033.05;;;30.54;16.87
49529;BME280;35423;37.320;-121.762;2024-02-26T02:39:55;100035.96;;;30.16;16.90
49529;BME280;35423;37.320;-121.762;2024-02-26T02:42:24;100035.28;;;30.33;16.98
49529;BME280;35423;37.320;-121.762;2024-02-26T02:44:50;100038.34;;;30.19;17.06
49529;BME280;35423;37.320;-121.762;2024-02-26T02:47:17;100043.19;;;30.10;17.37
49529;BME280;35423;37.320;-121.762;2024-02-26T02:49:46;100048.11;;;29.48;17.63
49529;BME280;35423;37.320;-121.762;2024-02-26T02:52:11;100053.43;;;29.68;17.73
49529;BME280;35423;37.320;-121.762;2024-02-26T02:54:37;100050.12;;;29.27;17.81
49529;BME280;35423;37.320;-121.762;2024-02-26T02:57:02;100050.60;;;29.68;17.88
49529;BME280;35423;37.320;-121.762;2024-02-26T02:59:29;100048.74;;;29.77;17.92
49529;BME280;35423;37.320;-121.762;2024-02-26T03:01:55;100051.66;;;29.64;17.91
49529;BME280;35423;37.320;-121.762;2024-02-26T03:04:20;100054.12;;;29.41;18.00
49529;BME280;35423;37.320;-121.762;2024-02-26T03:06:55;100056.77;;;29.24;18.17
49529;BME280;35423;37.320;-121.762;2024-02-26T03:09:27;100058.97;;;29.17;18.24
49529;BME280;35423;37.320;-121.762;2024-02-26T03:11:52;100058.41;;;29.20;18.34
49529;BME280;35423;37.320;-121.762;2024-02-26T03:14:18;100056.64;;;29.01;18.38
49529;BME280;35423;37.320;-121.762;2024-02-26T03:16:43;100059.43;;;28.61;18.38
49529;BME280;35423;37.320;-121.762;2024-02-26T03:19:10;100062.38;;;28.75;18.44
49529;BME280;35423;37.320;-121.762;2024-02-26T03:21:39;100064.95;;;28.60;18.52
49529;BME280;35423;37.320;-121.762;2024-02-26T03:24:07;100064.02;;;28.66;18.69
49529;BME280;35423;37.320;-121.762;2024-02-26T03:26:36;100063.67;;;28.17;18.78
49529;BME280;35423;37.320;-121.762;2024-02-26T03:29:03;100068.03;;;28.62;18.82
49529;BME280;35423;37.320;-121.762;2024-02-26T03:31:35;100069.82;;;28.39;18.87
49529;BME280;35423;37.320;-121.762;2024-02-26T03:34:06;100067.87;;;28.58;18.90
49529;BME280;35423;37.320;-121.762;2024-02-26T03:36:31;100060.59;;;28.45;18.86
49529;BME280;35423;37.320;-121.762;2024-02-26T03:38:57;100058.23;;;28.31;19.01
49529;BME280;35423;37.320;-121.762;2024-02-26T03:41:23;100054.33;;;28.57;19.21
49529;BME280;35423;37.320;-121.762;2024-02-26T03:43:49;100056.90;;;27.71;19.29
49529;BME280;35423;37.320;-121.762;2024-02-26T03:46:14;100054.29;;;28.08;19.26
49529;BME280;35423;37.320;-121.762;2024-02-26T03:48:46;100061.16;;;27.69;19.39
49529;BME280;35423;37.320;-121.762;2024-02-26T03:51:12;100065.74;;;27.65;19.43
49529;BME280;35423;37.320;-121.762;2024-02-26T03:53:41;100067.46;;;27.08;19.53
49529;BME280;35423;37.320;-121.762;2024-02-26T03:56:11;100070.16;;;27.48;19.60
49529;BME280;35423;37.320;-121.762;2024-02-26T03:58:36;100075.01;;;27.36;19.69
49529;BME280;35423;37.320;-121.762;2024-02-26T04:01:01;100081.70;;;27.73;19.72
49529;BME280;35423;37.320;-121.762;2024-02-26T04:03:27;100083.27;;;27.63;19.76
49529;BME280;35423;37.320;-121.762;2024-02-26T04:05:58;100086.34;;;27.61;19.80
49529;BME280;35423;37.320;-121.762;2024-02-26T04:08:20;100085.25;;;27.48;19.88
49529;BME280;35423;37.320;-121.762;2024-02-26T04:10:47;100088.17;;;26.78;19.97
49529;BME280;35423;37.320;-121.762;2024-02-26T04:13:12;100093.24;;;27.07;20.08
49529;BME280;35423;37.320;-121.762;2024-02-26T04:15:39;100094.37;;;26.42;20.20
49529;BME280;35423;37.320;-121.762;2024-02-26T04:18:05;100096.70;;;26.79;20.23
49529;BME280;35423;37.320;-121.762;2024-02-26T04:20:39;100098.07;;;26.42;20.25
49529;BME280;35423;37.320;-121.762;2024-02-26T04:23:05;100099.49;;;26.82;20.36
49529;BME280;35423;37.320;-121.762;2024-02-26T04:25:35;100104.35;;;26.22;20.38
49529;BME280;35423;37.320;-121.762;2024-02-26T04:28:01;100105.51;;;26.33;20.46
49529;BME280;35423;37.320;-121.762;2024-02-26T04:30:26;100109.28;;;26.39;20.61
49529;BME280;35423;37.320;-121.762;2024-02-26T04:32:53;100115.95;;;26.06;20.80
49529;BME280;35423;37.320;-121.762;2024-02-26T04:35:32;100121.15;;;26.12;21.00
49529;BME280;35423;37.320;-121.762;2024-02-26T04:37:58;100126.75;;;25.85;21.16
49529;BME280;35423;37.320;-121.762;2024-02-26T04:40:26;100131.67;;;25.83;21.13
49529;BME280;35423;37.320;-121.762;2024-02-26T04:42:52;100134.85;;;25.80;21.15
49529;BME280;35423;37.320;-121.762;2024-02-26T04:45:21;100140.59;;;25.77;21.08
49529;BME280;35423;37.320;-121.762;2024-02-26T04:47:48;100149.11;;;25.41;21.10
49529;BME280;35423;37.320;-121.762;2024-02-26T04:50:14;100149.39;;;25.51;21.30
49529;BME280;35423;37.320;-121.762;2024-02-26T04:52:39;100154.58;;;25.06;21.46
49529;BME280;35423;37.320;-121.762;2024-02-26T04:55:10;100157.58;;;25.39;21.58
49529;BME280;35423;37.320;-121.762;2024-02-26T04:57:38;100158.18;;;24.53;21.71
49529;BME280;35423;37.320;-121.762;2024-02-26T05:00:14;100162.67;;;25.12;21.70
49529;BME280;35423;37.320;-121.762;2024-02-26T05:02:40;100166.63;;;24.30;21.80
49529;BME280;35423;37.320;-121.762;2024-02-26T05:05:06;100169.95;;;24.59;21.75
49529;BME280;35423;37.320;-121.762;2024-02-26T05:07:34;100172.84;;;24.88;21.66
49529;BME280;35423;37.320;-121.762;2024-02-26T05:09:59;100175.30;;;24.67;21.63
49529;BME280;35423;37.320;-121.762;2024-02-26T05:12:27;100173.82;;;24.72;21.61
49529;BME280;35423;37.320;-121.762;2024-02-26T05:15:01;100173.31;;;25.03;21.75
49529;BME280;35423;37.320;-121.762;2024-02-26T05:17:27;100170.58;;;24.84;22.00
49529;BME280;35423;37.320;-121.762;2024-02-26T05:19:54;100167.30;;;24.48;22.13
49529;BME280;35423;37.320;-121.762;2024-02-26T05:22:23;100170.83;;;24.65;22.17
49529;BME280;35423;37.320;-121.762;2024-02-26T05:24:51;100175.11;;;24.20;22.17
49529;BME280;35423;37.320;-121.762;2024-02-26T05:27:17;100181.63;;;24.58;22.21
49529;BME280;35423;37.320;-121.762;2024-02-26T05:29:43;100180.10;;;24.00;22.35
49529;BME280;35423;37.320;-121.762;2024-02-26T05:32:08;100177.32;;;24.67;22.41
49529;BME280;35423;37.320;-121.762;2024-02-26T05:34:35;100180.41;;;24.67;22.61
49529;BME280;35423;37.320;-121.762;2024-02-26T05:37:00;100180.98;;;24.11;22.64
49529;BME280;35423;37.320;-121.762;2024-02-26T05:39:26;100181.16;;;24.30;22.63
49529;BME280;35423;37.320;-121.762;2024-02-26T05:41:52;100181.42;;;23.97;22.68
49529;BME280;35423;37.320;-121.762;2024-02-26T05:44:22;100185.66;;;24.25;22.65
49529;BME280;35423;37.320;-121.762;2024-02-26T05:46:49;100185.53;;;24.02;22.68
49529;BME280;35423;37.320;-121.762;2024-02-26T05:49:17;100182.33;;;24.51;22.70
49529;BME280;35423;37.320;-121.762;2024-02-26T05:51:43;100179.82;;;24.24;22.78
49529;BME280;35423;37.320;-121.762;2024-02-26T05:54:12;100177.73;;;23.93;22.80
49529;BME280;35423;37.320;-121.762;2024-02-26T05:56:37;100178.44;;;23.60;22.73
49529;BME280;35423;37.320;-121.762;2024-02-26T05:59:09;100179.09;;;24.05;22.71
49529;BME280;35423;37.320;-121.762;2024-02-26T06:01:42;100180.78;;;23.77;22.79
49529;BME280;35423;37.320;-121.762;2024-02-26T06:04:15;100179.57;;;24.21;22.87
49529;BME280;35423;37.320;-121.762;2024-02-26T06:06:41;100179.02;;;23.47;22.95
49529;BME280;35423;37.320;-121.762;2024-02-26T06:09:06;100179.99;;;24.13;23.06
49529;BME280;35423;37.320;-121.762;2024-02-26T06:11:32;100184.29;;;24.48;23.13
49529;BME280;35423;37.320;-121.762;2024-02-26T06:14:03;100192.30;;;24.08;23.29
49529;BME280;35423;37.320;-121.762;2024-02-26T06:16:31;100195.69;;;24.16;23.30
49529;BME280;35423;37.320;-121.762;2024-02-26T06:18:57;100197.28;;;24.18;23.31
49529;BME280;35423;37.320;-121.762;2024-02-26T06:21:23;100198.47;;;24.19;23.36
49529;BME280;35423;37.320;-121.762;2024-02-26T06:23:51;100201.58;;;24.20;23.35
49529;BME280;35423;37.320;-121.762;2024-02-26T06:26:23;100202.01;;;24.21;23.37
49529;BME280;35423;37.320;-121.762;2024-02-26T06:28:51;100199.77;;;24.19;23.44
49529;BME280;35423;37.320;-121.762;2024-02-26T06:31:22;100193.17;;;24.11;23.45
49529;BME280;35423;37.320;-121.762;2024-02-26T06:33:52;100187.07;;;24.15;23.46
49529;BME280;35423;37.320;-121.762;2024-02-26T06:36:17;100181.53;;;24.14;23.53
49529;BME280;35423;37.320;-121.762;2024-02-26T06:38:46;100187.76;;;23.71;23.52
49529;BME280;35423;37.320;-121.762;2024-02-26T06:41:20;100196.32;;;24.27;23.46
49529;BME280;35423;37.320;-121.762;2024-02-26T06:43:46;100203.41;;;24.30;23.42
49529;BME280;35423;37.320;-121.762;2024-02-26T06:46:18;100207.09;;;24.20;23.53
49529;BME280;35423;37.320;-121.762;2024-02-26T06:48:45;100207.84;;;23.66;23.58
49529;BME280;35423;37.320;-121.762;2024-02-26T06:51:10;100207.45;;;24.22;23.58
49529;BME280;35423;37.320;-121.762;2024-02-26T06:53:41;100199.97;;;23.54;23.53
49529;BME280;35423;37.320;-121.762;2024-02-26T06:56:09;100196.44;;;24.00;23.61
49529;BME280;35423;37.320;-121.762;2024-02-26T06:58:35;100195.71;;;23.94;23.66
49529;BME280;35423;37.320;-121.762;2024-02-26T07:01:26;100197.00;;;24.04;23.74
49529;BME280;35423;37.320;-121.762;2024-02-26T07:03:54;100197.68;;;23.74;23.76
49529;BME280;35423;37.320;-121.762;2024-02-26T07:06:28;100197.07;;;23.88;23.83
49529;BME280;35423;37.320;-121.762;2024-02-26T07:08:55;100194.13;;;23.84;23.96
49529;BME280;35423;37.320;-121.762;2024-02-26T07:11:19;100193.19;;;23.57;24.10
49529;BME280;35423;37.320;-121.762;2024-02-26T07:13:49;100192.89;;;23.28;24.10
49529;BME280;35423;37.320;-121.762;2024-02-26T07:16:19;100189.19;;;23.77;24.10
49529;BME280;35423;37.320;-121.762;2024-02-26T07:18:51;100194.27;;;23.55;24.12
49529;BME280;35423;37.320;-121.762;2024-02-26T07:21:09;100200.84;;;23.76;24.10
49529;BME280;35423;37.320;-121.762;2024-02-26T07:23:37;100202.09;;;23.21;24.10
49529;BME280;35423;37.320;-121.762;2024-02-26T07:26:05;100202.78;;;23.85;24.20
49529;BME280;35423;37.320;-121.762;2024-02-26T07:28:34;100205.86;;;23.94;24.33
49529;BME280;35423;37.320;-121.762;2024-02-26T07:30:59;100212.29;;;23.27;24.56
49529;BME280;35423;37.320;-121.762;2024-02-26T07:33:24;100220.55;;;23.15;24.66
49529;BME280;35423;37.320;-121.762;2024-02-26T07:35:52;100218.80;;;23.07;24.81
49529;BME280;35423;37.320;-121.762;2024-02-26T07:38:17;100215.26;;;23.42;25.01
49529;BME280;35423;37.320;-121.762;2024-02-26T07:40:43;100215.04;;;22.88;25.09
49529;BME280;35423;37.320;-121.762;2024-02-26T07:43:14;100215.07;;;23.39;25.08
49529;BME280;35423;37.320;-121.762;2024-02-26T07:45:42;100215.07;;;22.67;25.03
49529;BME280;35423;37.320;-121.762;2024-02-26T07:48:08;100215.58;;;23.38;25.05
49529;BME280;35423;37.320;-121.762;2024-02-26T07:50:35;100213.27;;;22.90;24.95
49529;BME280;35423;37.320;-121.762;2024-02-26T07:53:00;100210.89;;;23.14;24.93
49529;BME280;35423;37.320;-121.762;2024-02-26T07:55:35;100206.53;;;22.89;24.92
49529;BME280;35423;37.320;-121.762;2024-02-26T07:58:06;100198.72;;;23.31;24.95
49529;BME280;35423;37.320;-121.762;2024-02-26T08:00:31;100190.39;;;23.36;24.82
49529;BME280;35423;37.320;-121.762;2024-02-26T08:03:03;100186.12;;;23.10;24.97
49529;BME280;35423;37.320;-121.762;2024-02-26T08:05:30;100184.44;;;22.90;24.92
49529;BME280;35423;37.320;-121.762;2024-02-26T08:07:56;100184.72;;;23.07;24.78
49529;BME280;35423;37.320;-121.762;2024-02-26T08:10:27;100183.80;;;23.57;24.77
49529;BME280;35423;37.320;-121.762;2024-02-26T08:12:53;100178.85;;;23.47;24.88
49529;BME280;35423;37.320;-121.762;2024-02-26T08:15:19;100178.88;;;23.35;25.00
49529;BME280;35423;37.320;-121.762;2024-02-26T08:17:47;100172.87;;;22.80;25.03
49529;BME280;35423;37.320;-121.762;2024-02-26T08:20:13;100176.32;;;23.17;25.11
49529;BME280;35423;37.320;-121.762;2024-02-26T08:22:39;100178.37;;;22.55;25.24
49529;BME280;35423;37.320;-121.762;2024-02-26T08:25:06;100176.99;;;22.89;25.29
49529;BME280;35423;37.320;-121.762;2024-02-26T08:27:32;100175.43;;;23.03;25.29
49529;BME280;35423;37.320;-121.762;2024-02-26T08:29:57;100170.59;;;22.44;25.44
49529;BME280;35423;37.320;-121.762;2024-02-26T08:32:23;100162.43;;;22.53;25.54
49529;BME280;35423;37.320;-121.762;2024-02-26T08:34:57;100155.56;;;22.37;25.66
49529;BME280;35423;37.320;-121.762;2024-02-26T08:37:34;100150.48;;;22.71;25.85
49529;BME280;35423;37.320;-121.762;2024-02-26T08:39:59;100146.12;;;22.31;25.96
49529;BME280;35423;37.320;-121.762;2024-02-26T08:42:27;100144.56;;;22.21;26.04
49529;BME280;35423;37.320;-121.762;2024-02-26T08:44:53;100140.26;;;22.11;26.15
49529;BME280;35423;37.320;-121.762;2024-02-26T08:47:18;100138.47;;;22.02;26.26
49529;BME280;35423;37.320;-121.762;2024-02-26T08:49:45;100139.20;;;21.89;26.37
49529;BME280;35423;37.320;-121.762;2024-02-26T08:52:10;100141.09;;;22.02;26.46
49529;BME280;35423;37.320;-121.762;2024-02-26T08:54:37;100142.82;;;21.65;26.49
49529;BME280;35423;37.320;-121.762;2024-02-26T08:57:04;100143.11;;;21.64;26.65
49529;BME280;35423;37.320;-121.762;2024-02-26T08:59:35;100140.24;;;21.27;26.64
49529;BME280;35423;37.320;-121.762;2024-02-26T09:02:09;100136.00;;;21.36;26.72
49529;BME280;35423;37.320;-121.762;2024-02-26T09:04:35;100140.63;;;20.75;26.78
49529;BME280;35423;37.320;-121.762;2024-02-26T09:07:02;100139.63;;;21.19;26.83
49529;BME280;35423;37.320;-121.762;2024-02-26T09:09:28;100139.79;;;21.40;26.87
49529;BME280;35423;37.320;-121.762;2024-02-26T09:11:56;100139.62;;;21.37;26.87
49529;BME280;35423;37.320;-121.762;2024-02-26T09:14:21;100135.14;;;21.48;26.97
49529;BME280;35423;37.320;-121.762;2024-02-26T09:16:49;100132.81;;;20.78;26.98
49529;BME280;35423;37.320;-121.762;2024-02-26T09:19:16;100132.80;;;21.48;27.02
49529;BME280;35423;37.320;-121.762;2024-02-26T09:21:44;100137.28;;;20.59;26.92
49529;BME280;35423;37.320;-121.762;2024-02-26T09:24:10;100139.01;;;21.31;26.88
49529;BME280;35423;37.320;-121.762;2024-02-26T09:26:36;100137.90;;;20.57;26.89
49529;BME280;35423;37.320;-121.762;2024-02-26T09:29:08;100137.66;;;21.10;26.86
49529;BME280;35423;37.320;-121.762;2024-02-26T09:31:34;100131.94;;;21.46;26.86
49529;BME280;35423;37.320;-121.762;2024-02-26T09:34:00;100130.47;;;21.07;26.96
49529;BME280;35423;37.320;-121.762;2024-02-26T09:36:25;100133.07;;;21.24;27.01
49529;BME280;35423;37.320;-121.762;2024-02-26T09:38:50;100136.77;;;20.77;27.05
49529;BME280;35423;37.320;-121.762;2024-02-26T09:41:16;100139.85;;;21.02;27.07
49529;BME280;35423;37.320;-121.762;2024-02-26T09:43:43;100139.96;;;20.83;27.13
49529;BME280;35423;37.320;-121.762;2024-02-26T09:46:06;100136.25;;;20.87;27.06
49529;BME280;35423;37.320;-121.762;2024-02-26T09:48:38;100131.29;;;20.63;27.15
49529;BME280;35423;37.320;-121.762;2024-02-26T09:51:03;100122.78;;;21.13;27.13
49529;BME280;35423;37.320;-121.762;2024-02-26T09:53:30;100109.69;;;21.28;27.18
49529;BME280;35423;37.320;-121.762;2024-02-26T09:55:57;100103.55;;;20.83;27.16
49529;BME280;35423;37.320;-121.762;2024-02-26T09:58:22;100101.09;;;21.01;27.15
49529;BME280;35423;37.320;-121.762;2024-02-26T10:00:53;100099.97;;;20.74;27.21
49529;BME280;35423;37.320;-121.762;2024-02-26T10:03:17;100094.61;;;21.09;27.34
49529;BME280;35423;37.320;-121.762;2024-02-26T10:05:42;100086.72;;;20.28;27.40
49529;BME280;35423;37.320;-121.762;2024-02-26T10:08:09;100083.47;;;20.93;27.41
49529;BME280;35423;37.320;-121.762;2024-02-26T10:10:34;100087.41;;;20.33;27.57
49529;BME280;35423;37.320;-121.762;2024-02-26T10:13:17;100086.38;;;20.69;27.65
49529;BME280;35423;37.320;-121.762;2024-02-26T10:15:43;100083.80;;;20.65;27.66
49529;BME280;35423;37.320;-121.762;2024-02-26T10:18:10;100079.59;;;20.53;27.75
49529;BME280;35423;37.320;-121.762;2024-02-26T10:20:36;100075.24;;;20.06;27.72
49529;BME280;35423;37.320;-121.762;2024-02-26T10:23:03;100066.66;;;20.14;27.86
49529;BME280;35423;37.320;-121.762;2024-02-26T10:25:27;100067.57;;;20.28;27.89
49529;BME280;35423;37.320;-121.762;2024-02-26T10:27:53;100070.16;;;20.19;27.91
49529;BME280;35423;37.320;-121.762;2024-02-26T10:30:22;100070.19;;;20.09;28.03
49529;BME280;35423;37.320;-121.762;2024-02-26T10:32:48;100066.86;;;20.04;28.06
49529;BME280;35423;37.320;-121.762;2024-02-26T10:35:13;100063.41;;;19.97;28.11
49529;BME280;35423;37.320;-121.762;2024-02-26T10:37:40;100057.49;;;19.42;28.21
49529;BME280;35423;37.320;-121.762;2024-02-26T10:40:06;100061.84;;;19.77;28.22
49529;BME280;35423;37.320;-121.762;2024-02-26T10:42:33;100061.80;;;19.92;28.30
49529;BME280;35423;37.320;-121.762;2024-02-26T10:44:56;100063.90;;;20.12;28.28
49529;BME280;35423;37.320;-121.762;2024-02-26T10:47:22;100072.04;;;19.60;28.34
49529;BME280;35423;37.320;-121.762;2024-02-26T10:49:48;100077.87;;;19.52;28.45
49529;BME280;35423;37.320;-121.762;2024-02-26T10:52:15;100075.92;;;20.02;28.49
49529;BME280;35423;37.320;-121.762;2024-02-26T10:54:42;100072.03;;;19.09;28.50
49529;BME280;35423;37.320;-121.762;2024-02-26T10:57:09;100072.25;;;20.10;27.67
49529;BME280;35423;37.320;-121.762;2024-02-26T10:59:39;100073.88;;;20.42;27.75
49529;BME280;35423;37.320;-121.762;2024-02-26T11:02:05;100077.24;;;19.65;28.04
49529;BME280;35423;37.320;-121.762;2024-02-26T11:04:34;100076.11;;;19.81;28.15
49529;BME280;35423;37.320;-121.762;2024-02-26T11:07:02;100073.42;;;19.91;28.05
49529;BME280;35423;37.320;-121.762;2024-02-26T11:09:28;100068.48;;;20.29;27.92
49529;BME280;35423;37.320;-121.762;2024-02-26T11:12:07;100072.34;;;20.13;27.92
49529;BME280;35423;37.320;-121.762;2024-02-26T11:14:34;100079.10;;;20.28;27.85
49529;BME280;35423;37.320;-121.762;2024-02-26T11:17:00;100085.02;;;20.29;27.84
49529;BME280;35423;37.320;-121.762;2024-02-26T11:19:25;100085.78;;;20.52;27.91
49529;BME280;35423;37.320;-121.762;2024-02-26T11:21:52;100080.35;;;20.18;28.00
49529;BME280;35423;37.320;-121.762;2024-02-26T11:24:20;100080.68;;;20.43;28.06
49529;BME280;35423;37.320;-121.762;2024-02-26T11:26:50;100076.55;;;20.40;28.10
49529;BME280;35423;37.320;-121.762;2024-02-26T11:29:13;100070.15;;;20.32;28.25
49529;BME280;35423;37.320;-121.762;2024-02-26T11:31:42;100066.80;;;19.84;28.30
49529;BME280;35423;37.320;-121.762;2024-02-26T11:34:09;100062.39;;;20.54;28.34
49529;BME280;35423;37.320;-121.762;2024-02-26T11:36:37;100058.80;;;19.55;28.30
49529;BME280;35423;37.320;-121.762;2024-02-26T11:39:04;100060.41;;;19.88;28.39
49529;BME280;35423;37.320;-121.762;2024-02-26T11:41:39;100066.13;;;20.01;28.54
49529;BME280;35423;37.320;-121.762;2024-02-26T11:44:05;100066.14;;;20.03;28.73
49529;BME280;35423;37.320;-121.762;2024-02-26T11:46:31;100067.20;;;19.88;28.90
49529;BME280;35423;37.320;-121.762;2024-02-26T11:48:59;100067.29;;;19.79;29.09
49529;BME280;35423;37.320;-121.762;2024-02-26T11:51:26;100065.54;;;19.81;29.11
49529;BME280;35423;37.320;-121.762;2024-02-26T11:53:50;100064.43;;;19.59;29.08
49529;BME280;35423;37.320;-121.762;2024-02-26T11:56:23;100064.01;;;19.81;29.13
49529;BME280;35423;37.320;-121.762;2024-02-26T11:58:43;100063.99;;;18.99;29.24
49529;BME280;35423;37.320;-121.762;2024-02-26T12:03:39;100063.92;;;19.56;29.37
49529;BME280;35423;37.320;-121.762;2024-02-26T12:06:05;100065.56;;;19.42;29.62
49529;BME280;35423;37.320;-121.762;2024-02-26T12:08:35;100063.87;;;19.38;29.68
49529;BME280;35423;37.320;-121.762;2024-02-26T12:11:05;100065.03;;;19.31;29.80
49529;BME280;35423;37.320;-121.762;2024-02-26T12:13:31;100061.49;;;19.30;29.82
49529;BME280;35423;37.320;-121.762;2024-02-26T12:16:05;100059.78;;;19.34;29.79
49529;BME280;35423;37.320;-121.762;2024-02-26T12:18:35;100051.82;;;19.12;29.74
49529;BME280;35423;37.320;-121.762;2024-02-26T12:20:59;100049.69;;;19.36;29.75
49529;BME280;35423;37.320;-121.762;2024-02-26T12:23:32;100046.48;;;19.39;29.71
49529;BME280;35423;37.320;-121.762;2024-02-26T12:26:01;100044.85;;;19.38;29.73
49529;BME280;35423;37.320;-121.762;2024-02-26T12:28:29;100042.18;;;19.48;29.68